sensor_id;sensor_type;location;lat;lon;timestamp;temperature;humidity
78028;DHT22;67235;45.638;11.714;2023-07-31T00:01:31;23.50;75.80
78028;DHT22;67235;45.638;11.714;2023-07-31T00:03:56;23.50;76.00
78028;DHT22;67235;45.638;11.714;2023-07-31T00:06:22;23.50;76.10
78028;DHT22;67235;45.638;11.714;2023-07-31T00:08:48;23.50;76.10
78028;DHT22;67235;45.638;11.714;2023-07-31T00:11:14;23.60;76.20
78028;DHT22;67235;45.638;11.714;2023-07-31T00:13:40;23.70;77.20
78028;DHT22;67235;45.638;11.714;2023-07-31T00:16:06;23.80;76.70
78028;DHT22;67235;45.638;11.714;2023-07-31T00:18:32;23.90;76.60
78028;DHT22;67235;45.638;11.714;2023-07-31T00:20:57;24.00;76.60
78028;DHT22;67235;45.638;11.714;2023-07-31T00:23:23;24.00;76.40
78028;DHT22;67235;45.638;11.714;2023-07-31T00:25:49;24.10;75.90
78028;DHT22;67235;45.638;11.714;2023-07-31T00:28:15;24.10;75.40
78028;DHT22;67235;45.638;11.714;2023-07-31T00:30:41;24.10;75.60
78028;DHT22;67235;45.638;11.714;2023-07-31T00:33:06;24.10;75.40
78028;DHT22;67235;45.638;11.714;2023-07-31T00:35:32;24.10;75.10
78028;DHT22;67235;45.638;11.714;2023-07-31T00:37:58;24.20;74.90
78028;DHT22;67235;45.638;11.714;2023-07-31T00:40:24;24.20;74.80
78028;DHT22;67235;45.638;11.714;2023-07-31T00:42:50;24.20;74.70
78028;DHT22;67235;45.638;11.714;2023-07-31T00:45:16;24.20;74.60
78028;DHT22;67235;45.638;11.714;2023-07-31T00:47:42;24.20;74.60
78028;DHT22;67235;45.638;11.714;2023-07-31T00:50:08;24.30;74.70
78028;DHT22;67235;45.638;11.714;2023-07-31T00:52:35;24.20;74.70
78028;DHT22;67235;45.638;11.714;2023-07-31T00:55:01;24.20;74.60
78028;DHT22;67235;45.638;11.714;2023-07-31T00:57:27;24.20;74.60
78028;DHT22;67235;45.638;11.714;2023-07-31T00:59:53;24.20;75.00
78028;DHT22;67235;45.638;11.714;2023-07-31T01:02:19;24.10;75.20
78028;DHT22;67235;45.638;11.714;2023-07-31T01:04:45;24.10;74.90
78028;DHT22;67235;45.638;11.714;2023-07-31T01:07:18;24.00;74.90
78028;DHT22;67235;45.638;11.714;2023-07-31T01:09:52;24.00;74.90
78028;DHT22;67235;45.638;11.714;2023-07-31T01:12:20;23.90;74.60
78028;DHT22;67235;45.638;11.714;2023-07-31T01:15:03;24.00;74.90
78028;DHT22;67235;45.638;11.714;2023-07-31T01:17:30;23.90;75.10
78028;DHT22;67235;45.638;11.714;2023-07-31T01:20:01;23.80;75.40
78028;DHT22;67235;45.638;11.714;2023-07-31T01:25:50;23.60;75.60
78028;DHT22;67235;45.638;11.714;2023-07-31T01:28:22;23.70;76.00
78028;DHT22;67235;45.638;11.714;2023-07-31T01:30:50;23.70;75.60
78028;DHT22;67235;45.638;11.714;2023-07-31T01:33:16;23.60;74.90
78028;DHT22;67235;45.638;11.714;2023-07-31T01:35:44;23.60;75.10
78028;DHT22;67235;45.638;11.714;2023-07-31T01:38:10;23.60;75.40
78028;DHT22;67235;45.638;11.714;2023-07-31T01:40:37;23.40;75.50
78028;DHT22;67235;45.638;11.714;2023-07-31T01:43:03;23.40;75.30
78028;DHT22;67235;45.638;11.714;2023-07-31T01:45:29;23.50;75.10
78028;DHT22;67235;45.638;11.714;2023-07-31T01:47:55;23.50;74.70
78028;DHT22;67235;45.638;11.714;2023-07-31T01:50:20;23.60;74.50
78028;DHT22;67235;45.638;11.714;2023-07-31T01:52:46;23.60;74.50
78028;DHT22;67235;45.638;11.714;2023-07-31T01:55:12;23.60;74.60
78028;DHT22;67235;45.638;11.714;2023-07-31T01:57:38;23.60;74.80
78028;DHT22;67235;45.638;11.714;2023-07-31T02:00:04;23.50;74.50
78028;DHT22;67235;45.638;11.714;2023-07-31T02:02:31;23.60;74.40
78028;DHT22;67235;45.638;11.714;2023-07-31T02:04:57;23.60;74.50
78028;DHT22;67235;45.638;11.714;2023-07-31T02:07:23;23.60;74.40
78028;DHT22;67235;45.638;11.714;2023-07-31T02:09:49;23.60;74.40
78028;DHT22;67235;45.638;11.714;2023-07-31T02:12:15;23.60;74.50
78028;DHT22;67235;45.638;11.714;2023-07-31T02:14:41;23.60;74.10
78028;DHT22;67235;45.638;11.714;2023-07-31T02:17:07;23.60;74.30
78028;DHT22;67235;45.638;11.714;2023-07-31T02:19:33;23.60;73.90
78028;DHT22;67235;45.638;11.714;2023-07-31T02:21:59;23.60;74.00
78028;DHT22;67235;45.638;11.714;2023-07-31T02:24:24;23.60;73.80
78028;DHT22;67235;45.638;11.714;2023-07-31T02:26:50;23.60;73.70
78028;DHT22;67235;45.638;11.714;2023-07-31T02:29:16;23.70;74.50
78028;DHT22;67235;45.638;11.714;2023-07-31T02:31:42;23.60;73.50
78028;DHT22;67235;45.638;11.714;2023-07-31T02:34:08;23.70;74.20
78028;DHT22;67235;45.638;11.714;2023-07-31T02:36:34;23.80;74.30
78028;DHT22;67235;45.638;11.714;2023-07-31T02:38:59;23.80;74.00
78028;DHT22;67235;45.638;11.714;2023-07-31T02:41:25;23.70;74.10
78028;DHT22;67235;45.638;11.714;2023-07-31T02:43:51;23.80;73.90
78028;DHT22;67235;45.638;11.714;2023-07-31T02:46:17;23.80;73.90
78028;DHT22;67235;45.638;11.714;2023-07-31T02:48:43;23.80;73.90
78028;DHT22;67235;45.638;11.714;2023-07-31T02:51:09;23.70;73.70
78028;DHT22;67235;45.638;11.714;2023-07-31T02:53:35;23.80;73.80
78028;DHT22;67235;45.638;11.714;2023-07-31T02:56:00;23.80;73.70
78028;DHT22;67235;45.638;11.714;2023-07-31T02:58:26;23.80;73.40
78028;DHT22;67235;45.638;11.714;2023-07-31T03:00:52;23.70;73.70
78028;DHT22;67235;45.638;11.714;2023-07-31T03:03:18;23.80;73.30
78028;DHT22;67235;45.638;11.714;2023-07-31T03:05:44;23.80;73.00
78028;DHT22;67235;45.638;11.714;2023-07-31T03:08:09;23.90;73.10
78028;DHT22;67235;45.638;11.714;2023-07-31T03:10:35;23.90;73.00
78028;DHT22;67235;45.638;11.714;2023-07-31T03:13:01;23.90;73.20
78028;DHT22;67235;45.638;11.714;2023-07-31T03:15:27;23.90;73.20
78028;DHT22;67235;45.638;11.714;2023-07-31T03:17:53;23.80;73.30
78028;DHT22;67235;45.638;11.714;2023-07-31T03:20:19;23.80;73.20
78028;DHT22;67235;45.638;11.714;2023-07-31T03:22:44;23.80;73.40
78028;DHT22;67235;45.638;11.714;2023-07-31T03:25:10;23.80;73.40
78028;DHT22;67235;45.638;11.714;2023-07-31T03:27:36;23.70;73.40
78028;DHT22;67235;45.638;11.714;2023-07-31T03:30:03;23.70;73.40
78028;DHT22;67235;45.638;11.714;2023-07-31T03:32:29;23.70;73.50
78028;DHT22;67235;45.638;11.714;2023-07-31T03:34:54;23.70;73.60
78028;DHT22;67235;45.638;11.714;2023-07-31T03:37:20;23.70;73.40
78028;DHT22;67235;45.638;11.714;2023-07-31T03:39:46;23.60;73.50
78028;DHT22;67235;45.638;11.714;2023-07-31T03:42:12;23.60;72.70
78028;DHT22;67235;45.638;11.714;2023-07-31T03:44:38;23.50;72.70
78028;DHT22;67235;45.638;11.714;2023-07-31T03:47:04;23.50;72.60
78028;DHT22;67235;45.638;11.714;2023-07-31T03:49:30;23.60;72.30
78028;DHT22;67235;45.638;11.714;2023-07-31T03:51:56;23.50;72.50
78028;DHT22;67235;45.638;11.714;2023-07-31T03:54:22;23.60;72.50
78028;DHT22;67235;45.638;11.714;2023-07-31T03:56:48;23.60;72.40
78028;DHT22;67235;45.638;11.714;2023-07-31T03:59:14;23.50;72.70
78028;DHT22;67235;45.638;11.714;2023-07-31T04:01:40;23.50;72.50
78028;DHT22;67235;45.638;11.714;2023-07-31T04:04:05;23.60;72.40
78028;DHT22;67235;45.638;11.714;2023-07-31T04:06:31;23.50;72.50
78028;DHT22;67235;45.638;11.714;2023-07-31T04:08:57;23.50;72.50
78028;DHT22;67235;45.638;11.714;2023-07-31T04:11:23;23.60;72.60
78028;DHT22;67235;45.638;11.714;2023-07-31T04:13:49;23.50;72.80
78028;DHT22;67235;45.638;11.714;2023-07-31T04:16:15;23.50;72.80
78028;DHT22;67235;45.638;11.714;2023-07-31T04:18:40;23.50;72.80
78028;DHT22;67235;45.638;11.714;2023-07-31T04:21:06;23.50;72.80
78028;DHT22;67235;45.638;11.714;2023-07-31T04:23:32;23.60;73.10
78028;DHT22;67235;45.638;11.714;2023-07-31T04:25:58;23.70;73.80
78028;DHT22;67235;45.638;11.714;2023-07-31T04:28:24;24.00;73.10
78028;DHT22;67235;45.638;11.714;2023-07-31T04:30:51;24.60;72.10
78028;DHT22;67235;45.638;11.714;2023-07-31T04:33:17;25.60;70.20
78028;DHT22;67235;45.638;11.714;2023-07-31T04:35:52;26.50;69.90
78028;DHT22;67235;45.638;11.714;2023-07-31T04:38:19;27.50;66.60
78028;DHT22;67235;45.638;11.714;2023-07-31T04:40:45;28.30;62.90
78028;DHT22;67235;45.638;11.714;2023-07-31T04:43:11;28.80;60.70
78028;DHT22;67235;45.638;11.714;2023-07-31T04:45:37;29.40;57.60
78028;DHT22;67235;45.638;11.714;2023-07-31T04:48:03;30.00;55.80
78028;DHT22;67235;45.638;11.714;2023-07-31T04:50:28;30.20;54.80
78028;DHT22;67235;45.638;11.714;2023-07-31T04:52:56;30.80;53.30
78028;DHT22;67235;45.638;11.714;2023-07-31T04:55:22;31.30;51.60
78028;DHT22;67235;45.638;11.714;2023-07-31T04:57:48;31.50;51.30
78028;DHT22;67235;45.638;11.714;2023-07-31T05:00:17;31.70;49.10
78028;DHT22;67235;45.638;11.714;2023-07-31T05:02:45;32.30;48.00
78028;DHT22;67235;45.638;11.714;2023-07-31T05:05:12;32.70;46.70
78028;DHT22;67235;45.638;11.714;2023-07-31T05:07:38;33.10;45.20
78028;DHT22;67235;45.638;11.714;2023-07-31T05:10:04;33.50;44.00
78028;DHT22;67235;45.638;11.714;2023-07-31T05:12:30;33.50;43.70
78028;DHT22;67235;45.638;11.714;2023-07-31T05:14:56;33.80;43.20
78028;DHT22;67235;45.638;11.714;2023-07-31T05:17:22;34.00;43.70
78028;DHT22;67235;45.638;11.714;2023-07-31T05:19:48;34.30;43.00
78028;DHT22;67235;45.638;11.714;2023-07-31T05:22:14;34.80;41.50
78028;DHT22;67235;45.638;11.714;2023-07-31T05:24:45;35.30;40.40
78028;DHT22;67235;45.638;11.714;2023-07-31T05:27:14;35.50;40.10
78028;DHT22;67235;45.638;11.714;2023-07-31T05:29:44;36.00;38.90
78028;DHT22;67235;45.638;11.714;2023-07-31T05:32:10;36.40;38.90
78028;DHT22;67235;45.638;11.714;2023-07-31T05:34:36;36.40;39.20
78028;DHT22;67235;45.638;11.714;2023-07-31T05:37:02;36.20;38.90
78028;DHT22;67235;45.638;11.714;2023-07-31T05:39:28;36.30;39.70
78028;DHT22;67235;45.638;11.714;2023-07-31T05:41:53;36.70;38.90
78028;DHT22;67235;45.638;11.714;2023-07-31T05:44:19;37.00;38.70
78028;DHT22;67235;45.638;11.714;2023-07-31T05:46:45;37.30;37.40
78028;DHT22;67235;45.638;11.714;2023-07-31T05:49:14;37.30;37.20
78028;DHT22;67235;45.638;11.714;2023-07-31T05:51:42;37.80;36.50
78028;DHT22;67235;45.638;11.714;2023-07-31T05:54:11;37.60;36.90
78028;DHT22;67235;45.638;11.714;2023-07-31T05:56:41;37.70;36.20
78028;DHT22;67235;45.638;11.714;2023-07-31T05:59:19;37.80;36.50
78028;DHT22;67235;45.638;11.714;2023-07-31T06:02:00;37.80;36.10
78028;DHT22;67235;45.638;11.714;2023-07-31T06:04:29;37.60;37.30
78028;DHT22;67235;45.638;11.714;2023-07-31T06:06:57;37.60;36.20
78028;DHT22;67235;45.638;11.714;2023-07-31T06:09:28;37.80;36.30
78028;DHT22;67235;45.638;11.714;2023-07-31T06:12:05;38.10;36.60
78028;DHT22;67235;45.638;11.714;2023-07-31T06:14:42;38.50;35.60
78028;DHT22;67235;45.638;11.714;2023-07-31T06:17:13;38.70;34.20
78028;DHT22;67235;45.638;11.714;2023-07-31T06:19:46;39.20;35.10
78028;DHT22;67235;45.638;11.714;2023-07-31T06:22:20;39.40;34.30
78028;DHT22;67235;45.638;11.714;2023-07-31T06:24:49;39.70;33.80
78028;DHT22;67235;45.638;11.714;2023-07-31T06:27:16;39.60;34.10
78028;DHT22;67235;45.638;11.714;2023-07-31T06:29:45;39.30;35.60
78028;DHT22;67235;45.638;11.714;2023-07-31T06:32:15;39.30;35.90
78028;DHT22;67235;45.638;11.714;2023-07-31T06:34:50;39.30;33.60
78028;DHT22;67235;45.638;11.714;2023-07-31T06:37:26;39.30;34.90
78028;DHT22;67235;45.638;11.714;2023-07-31T06:40:02;38.70;35.20
78028;DHT22;67235;45.638;11.714;2023-07-31T06:42:42;38.50;34.30
78028;DHT22;67235;45.638;11.714;2023-07-31T06:45:15;38.10;36.50
78028;DHT22;67235;45.638;11.714;2023-07-31T06:47:50;38.20;35.90
78028;DHT22;67235;45.638;11.714;2023-07-31T06:50:28;37.80;37.10
78028;DHT22;67235;45.638;11.714;2023-07-31T06:53:11;37.90;36.70
78028;DHT22;67235;45.638;11.714;2023-07-31T06:55:43;38.10;36.30
78028;DHT22;67235;45.638;11.714;2023-07-31T06:58:11;38.00;36.50
78028;DHT22;67235;45.638;11.714;2023-07-31T07:00:50;38.20;35.20
78028;DHT22;67235;45.638;11.714;2023-07-31T07:03:26;38.30;35.70
78028;DHT22;67235;45.638;11.714;2023-07-31T07:06:04;38.40;35.10
78028;DHT22;67235;45.638;11.714;2023-07-31T07:08:38;38.10;36.10
78028;DHT22;67235;45.638;11.714;2023-07-31T07:11:10;38.00;36.60
78028;DHT22;67235;45.638;11.714;2023-07-31T07:13:37;37.80;36.10
78028;DHT22;67235;45.638;11.714;2023-07-31T07:16:08;37.60;32.80
78028;DHT22;67235;45.638;11.714;2023-07-31T07:18:39;37.50;35.10
78028;DHT22;67235;45.638;11.714;2023-07-31T07:21:11;37.40;35.30
78028;DHT22;67235;45.638;11.714;2023-07-31T07:23:49;37.20;33.30
78028;DHT22;67235;45.638;11.714;2023-07-31T07:26:18;36.90;35.90
78028;DHT22;67235;45.638;11.714;2023-07-31T07:28:46;37.30;34.50
78028;DHT22;67235;45.638;11.714;2023-07-31T07:31:15;37.70;34.90
78028;DHT22;67235;45.638;11.714;2023-07-31T07:33:42;38.10;34.80
78028;DHT22;67235;45.638;11.714;2023-07-31T07:36:08;37.90;35.30
78028;DHT22;67235;45.638;11.714;2023-07-31T07:38:35;37.60;35.80
78028;DHT22;67235;45.638;11.714;2023-07-31T07:41:01;37.50;30.80
78028;DHT22;67235;45.638;11.714;2023-07-31T07:43:27;36.20;33.20
78028;DHT22;67235;45.638;11.714;2023-07-31T07:45:53;35.50;35.40
78028;DHT22;67235;45.638;11.714;2023-07-31T07:48:19;35.00;36.30
78028;DHT22;67235;45.638;11.714;2023-07-31T07:50:45;34.90;36.00
78028;DHT22;67235;45.638;11.714;2023-07-31T07:53:12;34.40;39.80
78028;DHT22;67235;45.638;11.714;2023-07-31T07:55:38;34.30;38.00
78028;DHT22;67235;45.638;11.714;2023-07-31T07:58:03;34.00;36.50
78028;DHT22;67235;45.638;11.714;2023-07-31T08:00:34;33.70;38.90
78028;DHT22;67235;45.638;11.714;2023-07-31T08:03:06;32.90;39.00
78028;DHT22;67235;45.638;11.714;2023-07-31T08:05:32;32.50;38.50
78028;DHT22;67235;45.638;11.714;2023-07-31T08:08:00;31.90;40.30
78028;DHT22;67235;45.638;11.714;2023-07-31T08:10:27;31.70;43.10
78028;DHT22;67235;45.638;11.714;2023-07-31T08:12:53;31.60;42.50
78028;DHT22;67235;45.638;11.714;2023-07-31T08:15:19;31.50;44.00
78028;DHT22;67235;45.638;11.714;2023-07-31T08:17:45;31.70;43.10
78028;DHT22;67235;45.638;11.714;2023-07-31T08:20:11;31.90;43.40
78028;DHT22;67235;45.638;11.714;2023-07-31T08:22:37;32.40;45.60
78028;DHT22;67235;45.638;11.714;2023-07-31T08:25:03;32.70;40.60
78028;DHT22;67235;45.638;11.714;2023-07-31T08:27:29;33.00;42.10
78028;DHT22;67235;45.638;11.714;2023-07-31T08:29:55;33.30;41.30
78028;DHT22;67235;45.638;11.714;2023-07-31T08:32:21;33.70;41.20
78028;DHT22;67235;45.638;11.714;2023-07-31T08:34:46;33.90;41.30
78028;DHT22;67235;45.638;11.714;2023-07-31T08:37:12;33.90;40.60
78028;DHT22;67235;45.638;11.714;2023-07-31T08:39:38;34.00;39.00
78028;DHT22;67235;45.638;11.714;2023-07-31T08:42:10;33.90;38.90
78028;DHT22;67235;45.638;11.714;2023-07-31T08:44:36;33.30;39.70
78028;DHT22;67235;45.638;11.714;2023-07-31T08:47:03;32.80;42.60
78028;DHT22;67235;45.638;11.714;2023-07-31T08:49:30;32.60;42.70
78028;DHT22;67235;45.638;11.714;2023-07-31T08:51:57;32.40;44.40
78028;DHT22;67235;45.638;11.714;2023-07-31T08:54:23;32.70;44.00
78028;DHT22;67235;45.638;11.714;2023-07-31T08:56:50;33.30;41.80
78028;DHT22;67235;45.638;11.714;2023-07-31T08:59:17;33.60;40.30
78028;DHT22;67235;45.638;11.714;2023-07-31T09:01:49;33.80;40.40
78028;DHT22;67235;45.638;11.714;2023-07-31T09:04:16;34.00;39.10
78028;DHT22;67235;45.638;11.714;2023-07-31T09:06:44;34.00;39.90
78028;DHT22;67235;45.638;11.714;2023-07-31T09:09:12;34.10;40.70
78028;DHT22;67235;45.638;11.714;2023-07-31T09:11:38;34.40;37.40
78028;DHT22;67235;45.638;11.714;2023-07-31T09:14:04;34.10;38.50
78028;DHT22;67235;45.638;11.714;2023-07-31T09:16:34;34.00;39.60
78028;DHT22;67235;45.638;11.714;2023-07-31T09:19:00;34.10;38.30
78028;DHT22;67235;45.638;11.714;2023-07-31T09:21:28;34.40;42.30
78028;DHT22;67235;45.638;11.714;2023-07-31T09:23:55;34.60;37.90
78028;DHT22;67235;45.638;11.714;2023-07-31T09:26:35;34.80;39.60
78028;DHT22;67235;45.638;11.714;2023-07-31T09:29:04;35.10;38.60
78028;DHT22;67235;45.638;11.714;2023-07-31T09:31:41;35.90;35.40
78028;DHT22;67235;45.638;11.714;2023-07-31T09:34:07;35.70;34.80
78028;DHT22;67235;45.638;11.714;2023-07-31T09:36:43;35.40;33.70
78028;DHT22;67235;45.638;11.714;2023-07-31T09:39:11;34.70;35.00
78028;DHT22;67235;45.638;11.714;2023-07-31T09:41:39;34.50;38.20
78028;DHT22;67235;45.638;11.714;2023-07-31T09:44:05;34.30;37.90
78028;DHT22;67235;45.638;11.714;2023-07-31T09:46:31;34.50;35.20
78028;DHT22;67235;45.638;11.714;2023-07-31T09:49:10;34.30;37.90
78028;DHT22;67235;45.638;11.714;2023-07-31T09:51:39;34.30;38.30
78028;DHT22;67235;45.638;11.714;2023-07-31T09:54:16;34.20;36.80
78028;DHT22;67235;45.638;11.714;2023-07-31T09:56:45;34.00;37.30
78028;DHT22;67235;45.638;11.714;2023-07-31T09:59:13;33.70;36.90
78028;DHT22;67235;45.638;11.714;2023-07-31T10:01:41;33.70;40.50
78028;DHT22;67235;45.638;11.714;2023-07-31T10:04:11;33.80;38.40
78028;DHT22;67235;45.638;11.714;2023-07-31T10:06:37;33.70;37.90
78028;DHT22;67235;45.638;11.714;2023-07-31T10:09:09;33.80;37.30
78028;DHT22;67235;45.638;11.714;2023-07-31T10:11:51;33.90;39.80
78028;DHT22;67235;45.638;11.714;2023-07-31T10:14:20;33.90;41.50
78028;DHT22;67235;45.638;11.714;2023-07-31T10:16:45;33.90;37.90
78028;DHT22;67235;45.638;11.714;2023-07-31T10:19:12;34.10;39.40
78028;DHT22;67235;45.638;11.714;2023-07-31T10:21:37;34.20;38.90
78028;DHT22;67235;45.638;11.714;2023-07-31T10:24:04;34.40;39.10
78028;DHT22;67235;45.638;11.714;2023-07-31T10:26:35;34.50;35.20
78028;DHT22;67235;45.638;11.714;2023-07-31T10:29:04;34.40;41.00
78028;DHT22;67235;45.638;11.714;2023-07-31T10:31:30;34.30;39.00
78028;DHT22;67235;45.638;11.714;2023-07-31T10:33:58;34.60;37.70
78028;DHT22;67235;45.638;11.714;2023-07-31T10:36:25;34.60;38.60
78028;DHT22;67235;45.638;11.714;2023-07-31T10:38:51;34.90;36.80
78028;DHT22;67235;45.638;11.714;2023-07-31T10:41:17;34.60;36.50
78028;DHT22;67235;45.638;11.714;2023-07-31T10:43:46;34.40;36.30
78028;DHT22;67235;45.638;11.714;2023-07-31T10:46:13;34.00;39.40
78028;DHT22;67235;45.638;11.714;2023-07-31T10:48:40;33.70;39.00
78028;DHT22;67235;45.638;11.714;2023-07-31T10:51:11;34.00;38.90
78028;DHT22;67235;45.638;11.714;2023-07-31T10:53:41;33.80;37.70
78028;DHT22;67235;45.638;11.714;2023-07-31T10:56:09;33.90;41.10
78028;DHT22;67235;45.638;11.714;2023-07-31T10:58:38;34.00;38.70
78028;DHT22;67235;45.638;11.714;2023-07-31T11:01:05;34.00;39.30
78028;DHT22;67235;45.638;11.714;2023-07-31T11:03:50;34.00;42.10
78028;DHT22;67235;45.638;11.714;2023-07-31T11:06:19;33.80;39.40
78028;DHT22;67235;45.638;11.714;2023-07-31T11:08:47;33.90;41.30
78028;DHT22;67235;45.638;11.714;2023-07-31T11:11:14;33.90;37.60
78028;DHT22;67235;45.638;11.714;2023-07-31T11:13:51;33.90;39.10
78028;DHT22;67235;45.638;11.714;2023-07-31T11:16:20;33.70;37.80
78028;DHT22;67235;45.638;11.714;2023-07-31T11:18:47;33.80;35.50
78028;DHT22;67235;45.638;11.714;2023-07-31T11:21:24;33.90;36.70
78028;DHT22;67235;45.638;11.714;2023-07-31T11:23:56;33.80;39.40
78028;DHT22;67235;45.638;11.714;2023-07-31T11:26:23;33.70;38.80
78028;DHT22;67235;45.638;11.714;2023-07-31T11:28:50;33.40;36.80
78028;DHT22;67235;45.638;11.714;2023-07-31T11:31:17;33.40;36.60
78028;DHT22;67235;45.638;11.714;2023-07-31T11:33:43;33.30;36.30
78028;DHT22;67235;45.638;11.714;2023-07-31T11:36:19;33.10;38.90
78028;DHT22;67235;45.638;11.714;2023-07-31T11:38:46;33.20;37.40
78028;DHT22;67235;45.638;11.714;2023-07-31T11:41:14;33.00;35.50
78028;DHT22;67235;45.638;11.714;2023-07-31T11:43:40;32.80;39.20
78028;DHT22;67235;45.638;11.714;2023-07-31T11:46:06;32.70;34.80
78028;DHT22;67235;45.638;11.714;2023-07-31T11:48:34;32.70;39.90
78028;DHT22;67235;45.638;11.714;2023-07-31T11:51:03;32.90;37.80
78028;DHT22;67235;45.638;11.714;2023-07-31T11:53:42;32.80;38.50
78028;DHT22;67235;45.638;11.714;2023-07-31T11:56:12;32.70;39.40
78028;DHT22;67235;45.638;11.714;2023-07-31T11:58:39;32.90;42.60
78028;DHT22;67235;45.638;11.714;2023-07-31T12:01:06;33.30;41.10
78028;DHT22;67235;45.638;11.714;2023-07-31T12:03:36;33.30;36.50
78028;DHT22;67235;45.638;11.714;2023-07-31T12:06:05;33.20;36.60
78028;DHT22;67235;45.638;11.714;2023-07-31T12:08:31;33.30;36.60
78028;DHT22;67235;45.638;11.714;2023-07-31T12:11:05;33.20;36.10
78028;DHT22;67235;45.638;11.714;2023-07-31T12:13:38;33.00;37.50
78028;DHT22;67235;45.638;11.714;2023-07-31T12:16:06;32.90;40.20
78028;DHT22;67235;45.638;11.714;2023-07-31T12:18:35;33.00;39.70
78028;DHT22;67235;45.638;11.714;2023-07-31T12:21:06;33.10;38.60
78028;DHT22;67235;45.638;11.714;2023-07-31T12:23:36;33.00;37.60
78028;DHT22;67235;45.638;11.714;2023-07-31T12:26:05;33.20;37.80
78028;DHT22;67235;45.638;11.714;2023-07-31T12:28:41;33.20;36.80
78028;DHT22;67235;45.638;11.714;2023-07-31T12:31:10;32.90;38.50
78028;DHT22;67235;45.638;11.714;2023-07-31T12:33:37;33.00;40.20
78028;DHT22;67235;45.638;11.714;2023-07-31T12:36:10;33.10;39.00
78028;DHT22;67235;45.638;11.714;2023-07-31T12:38:36;33.00;39.20
78028;DHT22;67235;45.638;11.714;2023-07-31T12:41:02;33.10;39.90
78028;DHT22;67235;45.638;11.714;2023-07-31T12:43:28;33.10;40.10
78028;DHT22;67235;45.638;11.714;2023-07-31T12:45:55;33.20;39.60
78028;DHT22;67235;45.638;11.714;2023-07-31T12:48:24;33.20;36.50
78028;DHT22;67235;45.638;11.714;2023-07-31T12:50:53;33.00;36.70
78028;DHT22;67235;45.638;11.714;2023-07-31T12:53:23;32.80;37.60
78028;DHT22;67235;45.638;11.714;2023-07-31T12:55:51;32.90;38.70
78028;DHT22;67235;45.638;11.714;2023-07-31T12:58:17;32.70;38.00
78028;DHT22;67235;45.638;11.714;2023-07-31T13:00:44;32.80;36.10
78028;DHT22;67235;45.638;11.714;2023-07-31T13:03:11;32.70;38.30
78028;DHT22;67235;45.638;11.714;2023-07-31T13:05:42;32.80;41.00
78028;DHT22;67235;45.638;11.714;2023-07-31T13:08:11;32.60;39.50
78028;DHT22;67235;45.638;11.714;2023-07-31T13:10:38;32.80;40.30
78028;DHT22;67235;45.638;11.714;2023-07-31T13:13:05;32.60;37.80
78028;DHT22;67235;45.638;11.714;2023-07-31T13:15:32;32.70;36.90
78028;DHT22;67235;45.638;11.714;2023-07-31T13:17:58;32.80;39.60
78028;DHT22;67235;45.638;11.714;2023-07-31T13:20:25;32.90;39.50
78028;DHT22;67235;45.638;11.714;2023-07-31T13:22:50;32.70;37.50
78028;DHT22;67235;45.638;11.714;2023-07-31T13:25:16;32.50;42.50
78028;DHT22;67235;45.638;11.714;2023-07-31T13:27:42;32.40;41.30
78028;DHT22;67235;45.638;11.714;2023-07-31T13:30:08;32.30;39.50
78028;DHT22;67235;45.638;11.714;2023-07-31T13:32:34;32.40;40.80
78028;DHT22;67235;45.638;11.714;2023-07-31T13:35:05;32.40;38.10
78028;DHT22;67235;45.638;11.714;2023-07-31T13:37:31;32.30;41.40
78028;DHT22;67235;45.638;11.714;2023-07-31T13:39:57;32.40;41.00
78028;DHT22;67235;45.638;11.714;2023-07-31T13:42:23;32.50;40.50
78028;DHT22;67235;45.638;11.714;2023-07-31T13:44:49;32.60;38.10
78028;DHT22;67235;45.638;11.714;2023-07-31T13:47:15;32.40;38.90
78028;DHT22;67235;45.638;11.714;2023-07-31T13:49:41;32.20;39.50
78028;DHT22;67235;45.638;11.714;2023-07-31T13:52:09;32.10;39.00
78028;DHT22;67235;45.638;11.714;2023-07-31T13:54:34;32.10;40.60
78028;DHT22;67235;45.638;11.714;2023-07-31T13:57:02;32.20;40.80
78028;DHT22;67235;45.638;11.714;2023-07-31T13:59:28;32.40;40.00
78028;DHT22;67235;45.638;11.714;2023-07-31T14:01:54;32.20;42.50
78028;DHT22;67235;45.638;11.714;2023-07-31T14:04:20;32.20;42.50
78028;DHT22;67235;45.638;11.714;2023-07-31T14:06:46;32.20;42.40
78028;DHT22;67235;45.638;11.714;2023-07-31T14:09:16;32.10;41.70
78028;DHT22;67235;45.638;11.714;2023-07-31T14:11:44;32.10;42.40
78028;DHT22;67235;45.638;11.714;2023-07-31T14:14:11;32.20;40.90
78028;DHT22;67235;45.638;11.714;2023-07-31T14:16:38;32.40;40.50
78028;DHT22;67235;45.638;11.714;2023-07-31T14:19:04;32.30;41.60
78028;DHT22;67235;45.638;11.714;2023-07-31T14:21:31;32.10;40.60
78028;DHT22;67235;45.638;11.714;2023-07-31T14:23:58;32.20;38.20
78028;DHT22;67235;45.638;11.714;2023-07-31T14:26:24;32.30;41.20
78028;DHT22;67235;45.638;11.714;2023-07-31T14:28:51;32.30;39.50
78028;DHT22;67235;45.638;11.714;2023-07-31T14:31:17;32.10;41.70
78028;DHT22;67235;45.638;11.714;2023-07-31T14:33:45;32.40;41.10
78028;DHT22;67235;45.638;11.714;2023-07-31T14:36:11;32.40;41.60
78028;DHT22;67235;45.638;11.714;2023-07-31T14:38:37;32.20;38.90
78028;DHT22;67235;45.638;11.714;2023-07-31T14:41:03;32.20;42.10
78028;DHT22;67235;45.638;11.714;2023-07-31T14:43:29;32.30;40.30
78028;DHT22;67235;45.638;11.714;2023-07-31T14:45:55;32.20;40.20
78028;DHT22;67235;45.638;11.714;2023-07-31T14:48:26;32.20;41.00
78028;DHT22;67235;45.638;11.714;2023-07-31T14:50:52;32.10;44.00
78028;DHT22;67235;45.638;11.714;2023-07-31T14:53:18;32.30;40.10
78028;DHT22;67235;45.638;11.714;2023-07-31T14:55:44;32.20;38.10
78028;DHT22;67235;45.638;11.714;2023-07-31T14:58:10;32.10;44.20
78028;DHT22;67235;45.638;11.714;2023-07-31T15:00:36;32.10;43.30
78028;DHT22;67235;45.638;11.714;2023-07-31T15:03:02;32.20;42.30
78028;DHT22;67235;45.638;11.714;2023-07-31T15:05:28;32.20;42.10
78028;DHT22;67235;45.638;11.714;2023-07-31T15:07:54;32.30;39.30
78028;DHT22;67235;45.638;11.714;2023-07-31T15:10:20;32.20;41.50
78028;DHT22;67235;45.638;11.714;2023-07-31T15:12:46;32.20;41.20
78028;DHT22;67235;45.638;11.714;2023-07-31T15:15:13;32.20;42.80
78028;DHT22;67235;45.638;11.714;2023-07-31T15:17:39;32.20;40.90
78028;DHT22;67235;45.638;11.714;2023-07-31T15:20:05;32.00;42.40
78028;DHT22;67235;45.638;11.714;2023-07-31T15:22:32;32.00;42.30